Pickstown, South Dakota
Current Conditions -  °F | °C
As of 10:55 PM on Saturday 25 Oct 2014 (Local Time) from KONL Reporting Station
Clear Clear  
Wind Chill: 12°   Ceiling: Unl
Heat Index: 12°   Visibility: 10mi
Dew Point:   Wind: 9mph
Humidity: 53%   Direction: 110°ESE
Pressure: 30.01"   Gusts: NA
Location:  43.07°N, 98.53°W
Report Text: KONL 260355Z AUTO 11008KT 10SM CLR 12/03 A3001 RMK AO2 T01190025
Loading
Personal Weather Stations






























Interactive Weather Map
Tropical Storm Tracking
New forecast layout! Learn more

10-Day Weather Forecast

Advertisements
Track Severe Weather on mobile